createdAt,value
2019-01-29T00:00:47.726Z,99935.67
2019-01-29T00:03:20.075Z,99934.87
2019-01-29T00:05:51.731Z,99931.89
2019-01-29T00:08:23.405Z,99933.94
2019-01-29T00:10:55.063Z,99932.53
2019-01-29T00:13:26.725Z,99932.58
2019-01-29T00:15:58.657Z,99933.67
2019-01-29T00:18:30.978Z,99943.36
2019-01-29T00:21:03.003Z,99953.72
2019-01-29T00:23:34.734Z,99964.02
2019-01-29T00:26:06.407Z,99969.12
2019-01-29T00:28:38.378Z,99967.07
2019-01-29T00:31:10.039Z,99973.20
2019-01-29T00:33:41.778Z,99975.30
2019-01-29T00:36:13.434Z,99978.55
2019-01-29T00:38:45.101Z,99980.27
2019-01-29T00:41:16.796Z,99981.20
2019-01-29T00:43:48.454Z,99990.14
2019-01-29T00:46:20.118Z,99995.02
2019-01-29T00:48:51.775Z,99996.42
2019-01-29T00:51:23.466Z,99997.07
2019-01-29T00:53:55.151Z,100004.77
2019-01-29T00:56:27.794Z,100006.28
2019-01-29T00:58:59.469Z,100009.08
2019-01-29T01:01:31.149Z,100012.42
2019-01-29T01:04:02.829Z,100021.69
2019-01-29T01:06:34.515Z,100021.62
2019-01-29T01:09:08.264Z,100017.34
2019-01-29T01:11:39.967Z,100021.09
2019-01-29T01:14:11.604Z,100029.39
2019-01-29T01:16:43.267Z,100027.66
2019-01-29T01:19:14.960Z,100031.67
2019-01-29T01:21:46.634Z,100028.14
2019-01-29T01:24:18.299Z,100032.92
2019-01-29T01:26:50.280Z,100031.05
2019-01-29T01:29:21.968Z,100030.03
2019-01-29T01:31:53.603Z,100043.45
2019-01-29T01:34:25.284Z,100038.25
2019-01-29T01:36:56.939Z,100037.41
2019-01-29T01:39:28.775Z,100038.91
2019-01-29T01:42:00.432Z,100045.34
2019-01-29T01:44:32.356Z,100045.98
2019-01-29T01:47:04.078Z,100053.28
2019-01-29T01:49:36.030Z,100049.92
2019-01-29T01:52:07.855Z,100058.23
2019-01-29T01:54:39.596Z,100057.06
2019-01-29T01:57:11.262Z,100062.66
2019-01-29T01:59:42.916Z,100061.25
2019-01-29T02:02:14.889Z,100066.66
2019-01-29T02:04:46.568Z,100068.88
2019-01-29T02:07:18.211Z,100066.12
2019-01-29T02:09:49.868Z,100070.09
2019-01-29T02:12:21.531Z,100076.19
2019-01-29T02:14:53.201Z,100075.34
2019-01-29T02:17:24.864Z,100080.63
2019-01-29T02:19:56.889Z,100075.56
2019-01-29T02:22:28.548Z,100079.21
2019-01-29T02:25:00.305Z,100073.42
2019-01-29T02:27:31.955Z,100082.86
2019-01-29T02:30:05.892Z,100089.86
2019-01-29T02:32:37.651Z,100090.64
2019-01-29T02:35:09.295Z,100098.00
2019-01-29T02:37:40.959Z,100099.30
2019-01-29T02:40:19.294Z,100100.70
2019-01-29T02:42:51.319Z,100106.14
2019-01-29T02:45:23.599Z,100101.66
2019-01-29T02:47:55.284Z,100106.48
2019-01-29T02:50:26.952Z,100113.36
2019-01-29T02:52:58.621Z,100114.59
2019-01-29T02:55:30.280Z,100106.45
2019-01-29T02:58:02.278Z,100118.16
2019-01-29T03:00:33.940Z,100122.78
2019-01-29T03:03:05.602Z,100129.12
2019-01-29T03:05:37.255Z,100118.04
2019-01-29T03:08:09.497Z,100124.02
2019-01-29T03:10:41.185Z,100130.11
2019-01-29T03:13:13.804Z,100133.05
2019-01-29T03:15:45.453Z,100129.77
2019-01-29T03:18:17.470Z,100131.64
2019-01-29T03:20:49.268Z,100134.98
2019-01-29T03:23:27.294Z,100138.89
2019-01-29T03:25:54.345Z,100135.50
2019-01-29T03:28:26.012Z,100143.67
2019-01-29T03:30:57.691Z,100149.11
2019-01-29T03:33:29.361Z,100150.97
2019-01-29T03:36:01.033Z,100149.70
2019-01-29T03:38:32.989Z,100155.34
2019-01-29T03:41:04.684Z,100158.58
2019-01-29T03:43:36.572Z,100155.73
2019-01-29T03:46:08.228Z,100158.95
2019-01-29T03:48:39.891Z,100162.45
2019-01-29T03:51:11.700Z,100169.53
2019-01-29T03:53:43.293Z,100174.68
2019-01-29T03:56:15.042Z,100181.16
2019-01-29T03:58:46.695Z,100179.65
2019-01-29T04:01:18.700Z,100176.03
2019-01-29T04:03:50.365Z,100185.75
2019-01-29T04:06:22.027Z,100192.46
2019-01-29T04:08:53.678Z,100192.64
2019-01-29T04:11:25.351Z,100192.48
2019-01-29T04:13:57.024Z,100195.84
2019-01-29T04:16:29.050Z,100197.52
2019-01-29T04:19:00.752Z,100209.28
2019-01-29T04:21:32.404Z,100205.08
2019-01-29T04:24:04.076Z,100201.71
2019-01-29T04:26:35.722Z,100207.09
2019-01-29T04:29:07.548Z,100202.38
2019-01-29T04:31:39.200Z,100203.56
2019-01-29T04:34:10.871Z,100212.61
2019-01-29T04:36:42.538Z,100212.97
2019-01-29T04:39:14.187Z,100219.08
2019-01-29T04:41:45.856Z,100211.45
2019-01-29T04:44:17.535Z,100221.71
2019-01-29T04:46:49.194Z,100220.70
2019-01-29T04:49:21.202Z,100221.31
2019-01-29T04:51:53.031Z,100233.11
2019-01-29T04:54:24.721Z,100232.68
2019-01-29T04:56:56.813Z,100231.52
2019-01-29T04:59:28.481Z,100235.75
2019-01-29T05:02:00.131Z,100232.47
2019-01-29T05:04:31.991Z,100233.50
2019-01-29T05:07:03.739Z,100237.23
2019-01-29T05:09:35.459Z,100229.94
2019-01-29T05:12:07.516Z,100242.13
2019-01-29T05:14:39.827Z,100248.27
2019-01-29T05:17:11.893Z,100247.39
2019-01-29T05:19:43.644Z,100250.18
2019-01-29T05:22:15.340Z,100248.41
2019-01-29T05:24:47.478Z,100250.61
2019-01-29T05:27:19.143Z,100248.17
2019-01-29T05:29:50.820Z,100252.45
2019-01-29T05:32:23.066Z,100258.05
2019-01-29T05:34:55.812Z,100253.95
2019-01-29T05:37:27.941Z,100257.75
2019-01-29T05:39:59.616Z,100264.66
2019-01-29T05:42:31.462Z,100269.55
2019-01-29T05:45:03.397Z,100267.15
2019-01-29T05:47:35.457Z,100273.98
2019-01-29T05:50:10.828Z,100272.98
2019-01-29T05:52:42.505Z,100273.47
2019-01-29T05:55:16.053Z,100271.51
2019-01-29T05:57:47.885Z,100280.15
2019-01-29T06:00:27.680Z,100280.38
2019-01-29T06:02:59.435Z,100288.41
2019-01-29T06:05:31.535Z,100288.73
2019-01-29T06:08:05.150Z,100293.84
2019-01-29T06:10:36.861Z,100292.99
2019-01-29T06:13:08.550Z,100299.48
2019-01-29T06:15:40.450Z,100299.44
2019-01-29T06:18:12.119Z,100303.19
2019-01-29T06:20:43.852Z,100305.72
2019-01-29T06:23:16.121Z,100309.70
2019-01-29T06:25:47.781Z,100304.61
2019-01-29T06:28:19.437Z,100305.39
2019-01-29T06:30:51.112Z,100306.61
2019-01-29T06:33:22.774Z,100313.88
2019-01-29T06:35:54.455Z,100317.20
2019-01-29T06:38:26.116Z,100323.75
2019-01-29T06:40:57.885Z,100322.17
2019-01-29T06:43:29.615Z,100330.19
2019-01-29T06:46:01.314Z,100332.14
2019-01-29T06:48:32.989Z,100332.39
2019-01-29T06:51:04.669Z,100341.23
2019-01-29T06:53:36.344Z,100340.42
2019-01-29T06:56:08.304Z,100334.28
2019-01-29T06:58:39.993Z,100337.67
2019-01-29T07:01:11.675Z,100345.42
2019-01-29T07:03:43.366Z,100340.66
2019-01-29T07:06:15.420Z,100347.97
2019-01-29T07:08:47.082Z,100349.91
2019-01-29T07:11:18.733Z,100348.28
2019-01-29T07:13:50.410Z,100351.76
2019-01-29T07:16:23.750Z,100354.30
2019-01-29T07:18:57.678Z,100348.80
2019-01-29T07:21:29.382Z,100356.59
2019-01-29T07:24:01.052Z,100352.69
2019-01-29T07:26:32.733Z,100356.48
2019-01-29T07:29:04.406Z,100358.95
2019-01-29T07:31:37.221Z,100359.01
2019-01-29T07:34:08.878Z,100359.53
2019-01-29T07:36:40.661Z,100363.70
2019-01-29T07:39:12.337Z,100360.77
2019-01-29T07:41:44.365Z,100366.41
2019-01-29T07:44:16.032Z,100371.89
2019-01-29T07:46:47.716Z,100351.94
2019-01-29T07:49:19.759Z,100366.64
2019-01-29T07:51:51.442Z,100369.34
2019-01-29T07:54:23.113Z,100370.98
2019-01-29T07:56:54.783Z,100373.72
2019-01-29T07:59:33.107Z,100371.78
2019-01-29T08:02:00.175Z,100375.58
2019-01-29T08:04:31.975Z,100373.70
2019-01-29T08:07:03.643Z,100377.33
2019-01-29T08:09:35.651Z,100380.14
2019-01-29T08:12:08.962Z,100385.10
2019-01-29T08:14:40.686Z,100379.52
2019-01-29T08:17:12.377Z,100382.63
2019-01-29T08:19:44.055Z,100379.74
2019-01-29T08:22:16.088Z,100383.00
2019-01-29T08:24:52.086Z,100388.19
2019-01-29T08:27:21.551Z,100387.21
2019-01-29T08:29:53.587Z,100387.20
2019-01-29T08:32:25.273Z,100393.64
2019-01-29T08:34:56.956Z,100392.87
2019-01-29T08:37:28.638Z,100400.00
2019-01-29T08:40:00.558Z,100399.72
2019-01-29T08:42:32.286Z,100392.52
2019-01-29T08:45:05.235Z,100398.05
2019-01-29T08:47:37.063Z,100402.05
2019-01-29T08:50:16.197Z,100410.88
2019-01-29T08:52:47.867Z,100409.47
2019-01-29T08:55:19.537Z,100412.70
2019-01-29T08:57:57.598Z,100419.19
2019-01-29T09:00:30.034Z,100420.28
2019-01-29T09:03:01.745Z,100423.75
2019-01-29T09:05:33.699Z,100425.70
2019-01-29T09:08:07.608Z,100427.19
2019-01-29T09:10:39.580Z,100425.09
2019-01-29T09:13:11.281Z,100432.08
2019-01-29T09:15:42.998Z,100437.21
2019-01-29T09:18:18.243Z,100431.35
2019-01-29T09:20:50.373Z,100426.55
2019-01-29T09:23:22.052Z,100429.53
2019-01-29T09:25:53.713Z,100429.80
2019-01-29T09:28:25.397Z,100433.28
2019-01-29T09:30:57.172Z,100428.58
2019-01-29T09:33:28.842Z,100429.04
2019-01-29T09:36:00.582Z,100434.44
2019-01-29T09:38:32.536Z,100432.11
2019-01-29T09:41:04.536Z,100431.52
2019-01-29T09:43:36.240Z,100433.42
2019-01-29T09:46:08.288Z,100431.92
2019-01-29T09:48:40.021Z,100430.54
2019-01-29T09:51:11.683Z,100441.63
2019-01-29T09:53:43.412Z,100443.89
2019-01-29T09:56:15.121Z,100439.84
2019-01-29T09:58:46.804Z,100446.27
2019-01-29T10:01:18.584Z,100445.72
2019-01-29T10:03:50.335Z,100450.30
2019-01-29T10:06:23.388Z,100453.62
2019-01-29T10:08:55.133Z,100444.75
2019-01-29T10:11:28.571Z,100446.28
2019-01-29T10:14:00.308Z,100446.88
2019-01-29T10:16:31.998Z,100447.22
2019-01-29T10:19:03.679Z,100444.73
2019-01-29T10:21:35.377Z,100443.02
2019-01-29T10:24:07.710Z,100445.12
2019-01-29T10:26:39.509Z,100443.81
2019-01-29T10:29:11.517Z,100447.12
2019-01-29T15:30:29.878Z,100480.63
2019-01-29T15:33:01.902Z,100487.38
2019-01-29T15:35:33.589Z,100487.36
2019-01-29T15:38:05.342Z,100484.98
2019-01-29T15:40:37.021Z,100485.18
2019-01-29T15:43:08.686Z,100479.41
2019-01-29T15:45:41.185Z,100472.59
2019-01-29T15:48:12.871Z,100479.50
2019-01-29T15:50:44.640Z,100478.41
2019-01-29T15:53:16.683Z,100479.61
2019-01-29T15:55:48.483Z,100479.80
2019-01-29T15:58:20.427Z,100477.52
2019-01-29T16:00:52.187Z,100481.52
2019-01-29T16:03:23.852Z,100486.80
2019-01-29T16:05:57.583Z,100484.22
2019-01-29T16:08:29.878Z,100493.78
2019-01-29T16:11:01.656Z,100495.91
2019-01-29T16:13:33.339Z,100497.52
2019-01-29T16:16:05.130Z,100494.44
2019-01-29T16:18:36.841Z,100503.94
2019-01-29T16:21:08.526Z,100498.20
2019-01-29T16:23:41.022Z,100499.02
2019-01-29T16:26:12.768Z,100504.78
2019-01-29T16:28:45.149Z,100503.38
2019-01-29T16:31:16.803Z,100513.06
2019-01-29T16:33:48.555Z,100505.77
2019-01-29T16:36:20.485Z,100508.95
2019-01-29T16:38:54.058Z,100504.03
2019-01-29T16:41:30.428Z,100505.28
2019-01-29T16:44:04.051Z,100501.72
2019-01-29T16:46:35.870Z,100506.03
2019-01-29T16:49:07.680Z,100500.34
2019-01-29T16:51:42.608Z,100496.34
2019-01-29T16:54:14.137Z,100499.25
2019-01-29T16:56:45.882Z,100503.45
2019-01-29T16:59:18.419Z,100503.09
2019-01-29T17:01:50.837Z,100497.63
2019-01-29T17:04:22.613Z,100502.53
2019-01-29T17:06:56.159Z,100500.67
2019-01-29T17:09:28.038Z,100502.38
2019-01-29T17:11:59.912Z,100500.69
2019-01-29T17:14:31.835Z,100496.05
2019-01-29T17:17:03.603Z,100500.81
2019-01-29T17:19:36.872Z,100497.36
2019-01-29T17:22:08.860Z,100492.62
2019-01-29T17:24:40.538Z,100499.57
2019-01-29T17:27:12.259Z,100496.82
2019-01-29T17:29:44.008Z,100495.45
2019-01-29T17:32:15.819Z,100502.05
2019-01-29T17:34:48.154Z,100498.00
2019-01-29T17:37:20.133Z,100500.77
2019-01-29T17:39:51.928Z,100508.14
2019-01-29T17:42:23.630Z,100502.81
2019-01-29T17:44:55.475Z,100504.59
2019-01-29T17:47:27.172Z,100500.08
2019-01-29T17:49:59.018Z,100505.66
2019-01-29T17:52:30.711Z,100504.53
2019-01-29T17:55:02.654Z,100504.45
2019-01-29T17:57:34.353Z,100503.34
2019-01-29T18:00:14.099Z,100502.02
2019-01-29T18:02:46.074Z,100505.23
2019-01-29T18:05:17.815Z,100510.88
2019-01-29T18:07:49.690Z,100510.19
2019-01-29T18:10:21.668Z,100507.62
2019-01-29T18:12:53.931Z,100508.69
2019-01-29T18:15:30.561Z,100504.56
2019-01-29T18:18:02.336Z,100506.34
2019-01-29T18:20:34.070Z,100503.38
2019-01-29T18:23:06.133Z,100503.70
2019-01-29T18:25:37.901Z,100500.22
2019-01-29T18:28:09.601Z,100498.85
2019-01-29T18:30:41.670Z,100498.30
2019-01-29T18:33:13.427Z,100493.83
2019-01-29T18:35:46.107Z,100496.88
2019-01-29T18:38:18.610Z,100498.95
2019-01-29T18:40:52.830Z,100498.50
2019-01-29T18:43:24.520Z,100498.43
2019-01-29T18:45:56.607Z,100496.59
2019-01-29T18:48:28.459Z,100492.22
2019-01-29T18:51:00.772Z,100488.72
2019-01-29T18:53:32.462Z,100487.13
2019-01-29T18:56:04.145Z,100491.20
2019-01-29T18:58:36.772Z,100481.05
2019-01-29T19:01:08.864Z,100490.72
2019-01-29T19:03:40.998Z,100484.41
2019-01-29T19:06:13.005Z,100488.25
2019-01-29T19:08:44.891Z,100489.11
2019-01-29T19:11:16.626Z,100491.14
2019-01-29T19:13:48.725Z,100496.69
2019-01-29T19:16:20.825Z,100493.98
2019-01-29T19:18:52.930Z,100499.62
2019-01-29T19:21:24.735Z,100502.00
2019-01-29T19:23:58.282Z,100500.53
2019-01-29T19:26:30.074Z,100498.99
2019-01-29T19:29:02.182Z,100499.20
2019-01-29T19:31:34.145Z,100497.69
2019-01-29T19:34:05.974Z,100494.45
2019-01-29T19:36:37.738Z,100495.36
2019-01-29T19:39:10.452Z,100497.17
2019-01-29T19:41:42.425Z,100500.96
2019-01-29T19:44:14.234Z,100501.87
2019-01-29T19:46:46.113Z,100505.19
2019-01-29T19:49:18.293Z,100504.48
2019-01-29T19:51:49.961Z,100506.04
2019-01-29T19:54:21.727Z,100506.30
2019-01-29T19:56:53.450Z,100512.20
2019-01-29T19:59:25.187Z,100517.95
2019-01-29T20:01:56.872Z,100517.55
2019-01-29T20:04:28.566Z,100510.38
2019-01-29T20:07:00.299Z,100517.42
2019-01-29T20:09:32.771Z,100522.30
2019-01-29T20:12:05.183Z,100525.48
2019-01-29T20:14:37.722Z,100529.30
2019-01-29T20:17:09.441Z,100528.63
2019-01-29T20:19:41.979Z,100531.25
2019-01-29T20:22:13.693Z,100533.98
2019-01-29T20:24:45.431Z,100525.73
2019-01-29T20:27:17.144Z,100530.92
2019-01-29T20:29:48.855Z,100528.05
2019-01-29T20:32:20.581Z,100526.03
2019-01-29T20:34:52.693Z,100524.06
2019-01-29T20:37:24.369Z,100526.48
2019-01-29T20:39:56.061Z,100515.56
2019-01-29T20:42:27.735Z,100514.81
2019-01-29T20:44:59.536Z,100520.44
2019-01-29T20:47:31.281Z,100511.57
2019-01-29T20:50:02.952Z,100514.14
2019-01-29T20:52:34.693Z,100517.31
2019-01-29T20:55:07.742Z,100517.83
2019-01-29T20:57:39.709Z,100512.27
2019-01-29T21:00:33.266Z,100511.45
2019-01-29T21:03:06.892Z,100512.30
2019-01-29T21:05:38.606Z,100505.79
2019-01-29T21:08:10.317Z,100508.58
2019-01-29T21:10:43.172Z,100512.19
2019-01-29T21:13:15.001Z,100510.77
2019-01-29T21:15:46.677Z,100512.69
2019-01-29T21:18:18.730Z,100514.40
2019-01-29T21:20:57.280Z,100516.38
2019-01-29T21:23:23.881Z,100521.09
2019-01-29T21:25:55.585Z,100516.94
2019-01-29T21:28:27.317Z,100519.80
2019-01-29T21:30:59.006Z,100521.78
2019-01-29T21:33:30.679Z,100512.69
2019-01-29T21:36:02.418Z,100516.45
2019-01-29T21:38:35.275Z,100515.36
2019-01-29T21:41:06.971Z,100516.06
2019-01-29T21:43:38.725Z,100512.70
2019-01-29T21:46:10.745Z,100514.45
2019-01-29T21:53:03.311Z,100509.20
2019-01-29T21:55:35.153Z,100509.70
2019-01-29T21:58:07.648Z,100511.55
2019-01-29T22:00:42.335Z,100511.20
2019-01-29T22:03:14.049Z,100520.55
2019-01-29T22:05:48.032Z,100509.48
2019-01-29T22:08:19.722Z,100514.75
2019-01-29T22:10:51.424Z,100515.95
2019-01-29T22:13:23.512Z,100508.47
2019-01-29T22:15:55.259Z,100511.86
2019-01-29T22:18:27.018Z,100512.73
2019-01-29T22:20:58.746Z,100511.80
2019-01-29T22:23:33.758Z,100511.63
2019-01-29T22:26:05.424Z,100510.94
2019-01-29T22:28:37.117Z,100514.33
2019-01-29T22:31:08.804Z,100511.13
2019-01-29T22:33:40.494Z,100505.64
2019-01-29T22:36:12.188Z,100504.84
2019-01-29T22:38:43.879Z,100502.23
2019-01-29T22:41:15.572Z,100501.73
2019-01-29T22:43:47.266Z,100505.86
2019-01-29T22:46:19.057Z,100499.41
2019-01-29T22:48:51.068Z,100496.34
2019-01-29T22:51:22.864Z,100499.60
2019-01-29T22:53:54.534Z,100496.31
2019-01-29T22:56:26.262Z,100493.29
2019-01-29T22:58:57.997Z,100492.26
2019-01-29T23:01:32.378Z,100492.22
2019-01-29T23:04:06.746Z,100492.57
2019-01-29T23:06:49.364Z,100494.86
2019-01-29T23:09:21.042Z,100497.74
2019-01-29T23:11:52.757Z,100491.62
2019-01-29T23:14:24.739Z,100489.59
2019-01-29T23:16:56.502Z,100487.47
2019-01-29T23:19:28.541Z,100492.53
2019-01-29T23:22:00.251Z,100491.55
2019-01-29T23:24:31.916Z,100494.13
2019-01-29T23:27:03.607Z,100489.91
2019-01-29T23:29:43.178Z,100485.61
2019-01-29T23:32:08.677Z,100488.03
2019-01-29T23:34:40.393Z,100477.64
2019-01-29T23:37:12.075Z,100481.48
2019-01-29T23:39:43.933Z,100482.55
2019-01-29T23:42:15.988Z,100478.74
2019-01-29T23:44:47.692Z,100474.69
2019-01-29T23:47:19.510Z,100470.33
2019-01-29T23:49:51.324Z,100464.49
2019-01-29T23:52:23.057Z,100464.85
2019-01-29T23:54:54.754Z,100462.11
2019-01-29T23:57:26.455Z,100468.27
2019-01-29T23:59:58.123Z,100466.61
